createdAt,value
2022-09-27T00:01:00.385Z,46.10
2022-09-27T00:03:28.769Z,46.10
2022-09-27T00:06:05.214Z,45.80
2022-09-27T00:08:33.875Z,46.20
2022-09-27T00:11:05.428Z,45.00
2022-09-27T00:13:33.582Z,44.90
2022-09-27T00:16:05.411Z,44.60
2022-09-27T00:18:34.653Z,44.50
2022-09-27T00:21:07.452Z,44.40
2022-09-27T00:23:35.733Z,44.50
2022-09-27T00:26:05.892Z,44.70
2022-09-27T00:28:34.676Z,44.70
2022-09-27T00:31:02.828Z,44.70
2022-09-27T00:33:30.814Z,44.50
2022-09-27T00:36:05.311Z,44.30
2022-09-27T00:38:33.697Z,44.00
2022-09-27T00:41:01.927Z,44.00
2022-09-27T00:43:46.271Z,44.50
2022-09-27T00:46:16.393Z,44.40
2022-09-27T00:48:44.410Z,43.90
2022-09-27T00:51:12.370Z,44.50
2022-09-27T00:53:46.447Z,44.20
2022-09-27T00:56:19.473Z,44.20
2022-09-27T00:58:54.069Z,44.50
2022-09-27T01:01:22.157Z,45.50
2022-09-27T01:03:53.652Z,46.80
2022-09-27T01:06:22.782Z,47.50
2022-09-27T01:08:50.855Z,46.80
2022-09-27T01:11:33.627Z,46.60
2022-09-27T01:14:35.648Z,46.00
2022-09-27T01:17:11.303Z,45.50
2022-09-27T01:20:06.545Z,45.20
2022-09-27T01:22:40.732Z,45.50
2022-09-27T01:25:26.900Z,45.70
2022-09-27T01:28:24.441Z,45.40
2022-09-27T01:31:00.122Z,45.00
2022-09-27T01:33:45.451Z,45.70
2022-09-27T01:36:22.691Z,44.90
2022-09-27T01:39:05.018Z,45.70
2022-09-27T01:41:54.956Z,46.80
2022-09-27T01:44:41.055Z,46.00
2022-09-27T01:47:20.789Z,45.60
2022-09-27T01:50:17.665Z,45.10
2022-09-27T01:52:50.232Z,44.70
2022-09-27T01:55:23.701Z,44.40
2022-09-27T01:58:15.488Z,44.00
2022-09-27T02:00:49.091Z,44.10
2022-09-27T02:03:25.572Z,43.90
2022-09-27T02:06:24.503Z,43.80
2022-09-27T02:09:03.217Z,43.40
2022-09-27T02:11:57.617Z,43.50
2022-09-27T02:14:31.543Z,43.40
2022-09-27T02:17:13.111Z,43.40
2022-09-27T02:19:54.068Z,43.80
2022-09-27T02:22:36.035Z,44.00
2022-09-27T02:25:18.289Z,44.40
2022-09-27T02:27:56.845Z,43.70
2022-09-27T02:30:29.654Z,43.90
2022-09-27T02:33:10.205Z,44.10
2022-09-27T02:35:39.460Z,44.20
2022-09-27T02:38:08.347Z,44.00
2022-09-27T02:40:44.326Z,44.60
2022-09-27T02:43:14.579Z,44.80
2022-09-27T02:45:54.581Z,45.30
2022-09-27T02:48:31.334Z,45.50
2022-09-27T02:51:19.201Z,45.90
2022-09-27T02:54:02.114Z,45.60
2022-09-27T02:56:59.558Z,45.80
2022-09-27T02:59:53.386Z,45.90
2022-09-27T03:02:37.181Z,46.00
2022-09-27T03:05:27.275Z,47.80
2022-09-27T03:07:56.728Z,48.00
2022-09-27T03:10:28.507Z,48.30
2022-09-27T03:12:58.505Z,47.90
2022-09-27T03:15:26.575Z,47.50
2022-09-27T03:18:03.729Z,47.70
2022-09-27T03:20:57.284Z,48.60
2022-09-27T03:23:28.335Z,48.60
2022-09-27T03:25:56.645Z,47.90
2022-09-27T03:28:25.099Z,47.40
2022-09-27T03:30:53.462Z,47.10
2022-09-27T03:33:44.228Z,46.80
2022-09-27T03:36:12.910Z,46.40
2022-09-27T03:38:42.229Z,46.00
2022-09-27T03:41:13.598Z,45.70
2022-09-27T03:43:41.927Z,45.40
2022-09-27T03:46:09.952Z,45.20
2022-09-27T03:48:38.543Z,45.70
2022-09-27T03:51:06.740Z,45.20
2022-09-27T03:53:34.958Z,45.30
2022-09-27T03:56:04.764Z,45.20
2022-09-27T03:58:33.221Z,45.60
2022-09-27T04:01:04.010Z,46.30
2022-09-27T04:03:35.040Z,46.70
2022-09-27T04:06:22.940Z,46.30
2022-09-27T04:08:51.528Z,47.20
2022-09-27T04:11:21.519Z,47.40
2022-09-27T04:13:49.739Z,46.90
2022-09-27T04:16:19.587Z,46.70
2022-09-27T04:19:06.698Z,46.10
2022-09-27T04:21:46.866Z,45.80
2022-09-27T04:24:15.930Z,45.60
2022-09-27T04:26:56.824Z,45.30
2022-09-27T04:29:28.179Z,45.20
2022-09-27T04:32:00.867Z,45.30
2022-09-27T04:35:09.281Z,44.70
2022-09-27T04:37:38.196Z,44.40
2022-09-27T04:40:06.919Z,44.40
2022-09-27T04:42:37.752Z,44.30
2022-09-27T04:45:07.343Z,44.80
2022-09-27T04:47:35.401Z,45.30
2022-09-27T04:50:03.732Z,45.30
2022-09-27T04:52:32.244Z,45.20
2022-09-27T04:55:00.156Z,45.20
2022-09-27T04:57:31.220Z,45.10
2022-09-27T05:00:00.665Z,45.30
2022-09-27T05:02:29.365Z,45.10
2022-09-27T05:05:20.356Z,45.00
2022-09-27T05:07:48.674Z,44.80
2022-09-27T05:10:27.555Z,44.80
2022-09-27T05:12:55.539Z,44.90
2022-09-27T05:15:24.892Z,45.10
2022-09-27T05:18:13.163Z,45.40
2022-09-27T05:20:59.734Z,45.70
2022-09-27T05:23:34.558Z,44.90
2022-09-27T05:26:05.350Z,45.00
2022-09-27T05:28:35.119Z,45.10
2022-09-27T05:31:05.058Z,45.40
2022-09-27T05:33:34.311Z,45.10
2022-09-27T05:36:20.932Z,45.30
2022-09-27T05:38:49.432Z,45.10
2022-09-27T05:41:18.229Z,45.40
2022-09-27T05:43:47.221Z,45.40
2022-09-27T05:46:17.000Z,45.30
2022-09-27T05:48:45.501Z,45.60
2022-09-27T05:51:14.339Z,46.60
2022-09-27T05:53:42.413Z,46.80
2022-09-27T05:56:26.620Z,47.40
2022-09-27T05:59:13.328Z,47.70
2022-09-27T06:02:21.018Z,47.20
2022-09-27T06:05:24.599Z,46.60
2022-09-27T06:08:12.717Z,46.10
2022-09-27T06:10:47.980Z,45.70
2022-09-27T06:13:18.161Z,46.20
2022-09-27T06:15:47.668Z,45.80
2022-09-27T06:18:18.066Z,46.10
2022-09-27T06:20:48.812Z,45.80
2022-09-27T06:23:19.996Z,46.00
2022-09-27T06:25:50.500Z,45.50
2022-09-27T06:28:23.818Z,45.80
2022-09-27T06:30:56.763Z,46.20
2022-09-27T06:33:31.572Z,46.00
2022-09-27T06:36:05.006Z,45.40
2022-09-27T06:38:34.222Z,45.50
2022-09-27T06:41:22.520Z,45.50
2022-09-27T06:44:04.447Z,45.20
2022-09-27T06:46:51.112Z,44.80
2022-09-27T06:49:40.475Z,45.10
2022-09-27T06:52:08.565Z,45.40
2022-09-27T06:54:36.496Z,45.90
2022-09-27T06:57:04.561Z,45.50
2022-09-27T06:59:50.195Z,45.30
2022-09-27T07:02:36.946Z,44.50
2022-09-27T07:05:40.667Z,45.10
2022-09-27T07:08:29.879Z,45.30
2022-09-27T07:11:03.564Z,44.10
2022-09-27T07:13:32.746Z,43.80
2022-09-27T07:16:00.881Z,44.60
2022-09-27T07:18:29.274Z,44.20
2022-09-27T07:21:01.157Z,44.40
2022-09-27T07:23:29.976Z,44.70
2022-09-27T07:26:04.373Z,43.90
2022-09-27T07:28:32.586Z,44.20
2022-09-27T07:31:03.783Z,44.40
2022-09-27T07:33:33.414Z,44.50
2022-09-27T07:36:10.104Z,44.70
2022-09-27T07:38:40.993Z,44.60
2022-09-27T07:41:13.186Z,44.70
2022-09-27T07:43:41.990Z,44.80
2022-09-27T07:46:11.110Z,45.00
2022-09-27T07:49:05.619Z,44.80
2022-09-27T07:51:46.382Z,44.90
2022-09-27T07:54:27.707Z,45.20
2022-09-27T07:57:18.284Z,45.30
2022-09-27T07:59:50.094Z,45.80
2022-09-27T08:02:20.750Z,46.20
2022-09-27T08:04:50.580Z,45.70
2022-09-27T08:07:21.926Z,45.90
2022-09-27T08:09:54.456Z,45.60
2022-09-27T08:12:23.455Z,45.20
2022-09-27T08:14:52.104Z,44.90
2022-09-27T08:17:21.592Z,44.30
2022-09-27T08:20:27.814Z,44.60
2022-09-27T08:23:29.706Z,44.90
2022-09-27T08:26:17.986Z,45.20
2022-09-27T08:29:01.570Z,45.20
2022-09-27T08:31:32.402Z,45.80
2022-09-27T08:34:00.432Z,45.10
2022-09-27T08:36:31.722Z,44.00
2022-09-27T08:39:01.159Z,43.20
2022-09-27T08:41:41.701Z,43.50
2022-09-27T08:44:17.010Z,43.80
2022-09-27T08:47:06.813Z,43.20
2022-09-27T08:49:40.925Z,42.70
2022-09-27T08:52:16.621Z,44.30
2022-09-27T08:54:48.021Z,43.50
2022-09-27T08:57:17.732Z,42.60
2022-09-27T08:59:51.413Z,44.10
2022-09-27T09:02:24.530Z,43.40
2022-09-27T09:04:56.961Z,43.30
2022-09-27T09:07:48.180Z,44.00
2022-09-27T09:10:47.987Z,42.60
2022-09-27T09:13:28.884Z,43.80
2022-09-27T09:16:11.561Z,44.10
2022-09-27T09:19:01.477Z,43.80
2022-09-27T09:22:00.507Z,42.60
2022-09-27T09:24:39.036Z,42.30
2022-09-27T09:27:17.382Z,42.50
2022-09-27T09:30:14.958Z,42.40
2022-09-27T09:33:03.287Z,42.40
2022-09-27T09:35:37.407Z,41.60
2022-09-27T09:38:13.633Z,42.80
2022-09-27T09:40:47.953Z,42.10
2022-09-27T09:43:22.107Z,42.30
2022-09-27T09:45:58.706Z,43.00
2022-09-27T09:48:34.890Z,42.90
2022-09-27T09:51:08.754Z,43.30
2022-09-27T09:53:43.027Z,42.70
2022-09-27T09:56:21.150Z,42.20
2022-09-27T09:58:56.023Z,41.70
2022-09-27T10:01:34.857Z,41.70
2022-09-27T10:04:03.328Z,41.90
2022-09-27T10:06:32.315Z,42.20
2022-09-27T10:09:05.912Z,42.40
2022-09-27T10:11:48.732Z,42.40
2022-09-27T10:14:22.520Z,42.50
2022-09-27T10:16:56.888Z,41.90
2022-09-27T10:19:30.859Z,42.00
2022-09-27T10:22:03.823Z,41.20
2022-09-27T10:24:57.470Z,42.40
2022-09-27T10:27:46.910Z,42.00
2022-09-27T10:30:29.707Z,42.10
2022-09-27T10:33:03.266Z,41.80
2022-09-27T10:35:45.338Z,41.60
2022-09-27T10:38:28.382Z,42.00
2022-09-27T10:41:18.020Z,41.20
2022-09-27T10:43:46.340Z,40.70
2022-09-27T10:46:28.158Z,41.00
2022-09-27T10:49:20.133Z,40.90
2022-09-27T10:51:53.442Z,39.70
2022-09-27T10:54:24.755Z,39.80
2022-09-27T10:56:58.814Z,40.50
2022-09-27T10:59:30.598Z,40.50
2022-09-27T11:02:00.957Z,41.10
2022-09-27T11:04:41.478Z,41.20
2022-09-27T11:07:18.412Z,41.40
2022-09-27T11:09:54.705Z,40.30
2022-09-27T11:12:25.305Z,41.00
2022-09-27T11:14:57.750Z,41.10
2022-09-27T11:17:35.825Z,40.60
2022-09-27T11:20:16.158Z,40.70
2022-09-27T11:23:15.205Z,40.00
2022-09-27T11:25:57.434Z,40.20
2022-09-27T11:28:39.403Z,40.60
2022-09-27T11:31:21.694Z,41.20
2022-09-27T11:34:35.725Z,41.60
2022-09-27T11:37:16.544Z,42.10
2022-09-27T11:40:04.570Z,42.10
2022-09-27T11:42:52.079Z,41.40
2022-09-27T11:45:56.458Z,42.10
2022-09-27T11:48:37.138Z,42.10
2022-09-27T11:51:27.754Z,42.30
2022-09-27T11:54:12.639Z,42.60
2022-09-27T11:56:49.963Z,42.20
2022-09-27T11:59:57.102Z,42.30
2022-09-27T12:02:39.611Z,42.20
2022-09-27T12:05:23.954Z,41.80
2022-09-27T12:08:13.831Z,41.90
2022-09-27T12:10:48.472Z,41.60
2022-09-27T12:13:24.923Z,42.10
2022-09-27T12:15:53.297Z,41.60
2022-09-27T12:18:29.860Z,41.80
2022-09-27T12:21:00.693Z,41.50
2022-09-27T12:23:39.914Z,41.60
2022-09-27T12:26:38.608Z,41.50
2022-09-27T12:29:14.027Z,42.10
2022-09-27T12:31:47.280Z,41.60
2022-09-27T12:34:20.380Z,40.90
2022-09-27T12:36:54.283Z,41.30
2022-09-27T12:39:29.706Z,40.90
2022-09-27T12:42:17.705Z,41.60
2022-09-27T12:44:51.558Z,41.70
2022-09-27T12:47:38.069Z,41.50
2022-09-27T12:50:20.008Z,41.30
2022-09-27T12:52:55.968Z,41.80
2022-09-27T12:55:47.711Z,41.90
2022-09-27T12:58:41.155Z,41.40
2022-09-27T13:01:18.051Z,42.00
2022-09-27T13:04:05.222Z,41.90
2022-09-27T13:06:43.170Z,42.20
2022-09-27T13:09:40.688Z,43.10
2022-09-27T13:12:11.857Z,42.00
2022-09-27T13:14:48.264Z,42.10
2022-09-27T13:17:48.583Z,42.10
2022-09-27T13:20:48.964Z,42.60
2022-09-27T13:23:57.910Z,42.40
2022-09-27T13:26:48.961Z,42.60
2022-09-27T13:29:26.609Z,41.30
2022-09-27T13:32:14.877Z,41.40
2022-09-27T13:35:13.851Z,41.80
2022-09-27T13:37:51.566Z,41.60
2022-09-27T13:40:32.798Z,41.80
2022-09-27T13:43:41.925Z,41.70
2022-09-27T13:46:52.959Z,40.40
2022-09-27T13:49:29.873Z,39.70
2022-09-27T13:52:21.584Z,39.90
2022-09-27T13:55:02.062Z,39.30
2022-09-27T13:57:47.563Z,39.80
2022-09-27T14:00:22.495Z,39.90
2022-09-27T14:03:02.585Z,40.70
2022-09-27T14:05:37.615Z,40.70
2022-09-27T14:08:07.396Z,40.60
2022-09-27T14:10:37.049Z,41.10
2022-09-27T14:13:07.117Z,41.40
2022-09-27T14:15:46.430Z,41.10
2022-09-27T14:18:16.679Z,41.40
2022-09-27T14:20:47.723Z,41.70
2022-09-27T14:23:41.532Z,42.60
2022-09-27T14:26:26.831Z,43.40
2022-09-27T14:28:55.366Z,43.70
2022-09-27T14:31:29.302Z,43.70
2022-09-27T14:34:13.541Z,43.40
2022-09-27T14:37:07.413Z,42.90
2022-09-27T14:39:48.633Z,43.00
2022-09-27T14:42:32.892Z,41.90
2022-09-27T14:45:06.352Z,42.00
2022-09-27T14:47:34.441Z,41.60
2022-09-27T14:50:14.705Z,41.70
2022-09-27T14:52:44.759Z,42.00
2022-09-27T14:55:18.862Z,43.10
2022-09-27T14:57:50.166Z,43.70
2022-09-27T15:00:24.538Z,44.90
2022-09-27T15:02:55.670Z,46.00
2022-09-27T15:05:25.356Z,46.20
2022-09-27T15:07:58.107Z,47.10
2022-09-27T15:10:31.269Z,47.70
2022-09-27T15:13:01.373Z,48.10
2022-09-27T15:15:31.928Z,48.10
2022-09-27T15:18:00.706Z,48.30
2022-09-27T15:20:34.644Z,49.60
2022-09-27T15:23:06.209Z,51.50
2022-09-27T15:25:38.670Z,52.40
2022-09-27T15:28:16.907Z,53.30
2022-09-27T15:30:53.072Z,53.10
2022-09-27T15:33:23.641Z,53.60
2022-09-27T15:35:52.994Z,54.80
2022-09-27T15:38:28.932Z,55.00
2022-09-27T15:41:06.764Z,56.20
2022-09-27T15:43:42.757Z,56.10
2022-09-27T15:46:38.166Z,55.90
2022-09-27T15:49:34.426Z,54.90
2022-09-27T15:52:04.972Z,54.70
2022-09-27T15:54:35.752Z,55.30
2022-09-27T15:57:05.918Z,55.30
2022-09-27T15:59:35.783Z,55.40
2022-09-27T16:02:08.209Z,55.40
2022-09-27T16:04:36.385Z,55.60
2022-09-27T16:07:08.896Z,55.80
2022-09-27T16:09:39.087Z,55.80
2022-09-27T16:12:07.137Z,55.00
2022-09-27T16:14:35.082Z,54.80
2022-09-27T16:17:05.778Z,54.20
2022-09-27T16:19:33.852Z,54.10
2022-09-27T16:22:03.471Z,54.20
2022-09-27T16:24:32.017Z,54.00
2022-09-27T16:27:01.453Z,54.20
2022-09-27T16:29:29.379Z,54.10
2022-09-27T16:31:57.352Z,54.20
2022-09-27T16:34:25.656Z,54.00
2022-09-27T16:36:53.713Z,53.90
2022-09-27T16:39:21.642Z,53.50
2022-09-27T16:41:50.311Z,53.70
2022-09-27T16:44:19.612Z,53.10
2022-09-27T16:46:47.631Z,53.30
2022-09-27T16:49:29.655Z,53.80
2022-09-27T16:52:00.473Z,53.70
2022-09-27T16:54:32.026Z,52.70
2022-09-27T16:57:00.558Z,53.10
2022-09-27T16:59:29.799Z,53.10
2022-09-27T17:01:58.120Z,52.50
2022-09-27T17:04:27.364Z,52.00
2022-09-27T17:06:55.471Z,51.60
2022-09-27T17:09:23.409Z,51.40
2022-09-27T17:11:51.750Z,51.80
2022-09-27T17:14:19.842Z,52.00
2022-09-27T17:16:50.436Z,52.10
2022-09-27T17:19:18.725Z,52.80
2022-09-27T17:21:47.523Z,52.90
2022-09-27T17:24:15.655Z,52.80
2022-09-27T17:26:44.433Z,52.60
2022-09-27T17:29:13.574Z,52.50
2022-09-27T17:31:43.351Z,52.40
2022-09-27T17:34:14.421Z,52.10
2022-09-27T17:36:48.093Z,51.80
2022-09-27T17:39:17.695Z,51.80
2022-09-27T17:41:45.722Z,51.70
2022-09-27T17:44:15.377Z,51.30
2022-09-27T17:46:45.384Z,51.20
2022-09-27T17:49:32.675Z,51.10
2022-09-27T17:52:01.256Z,51.60
2022-09-27T17:54:29.280Z,52.00
2022-09-27T17:56:57.250Z,52.20
2022-09-27T17:59:25.988Z,52.60
2022-09-27T18:01:55.653Z,53.60
2022-09-27T18:04:25.355Z,53.30
2022-09-27T18:06:53.254Z,53.00
2022-09-27T18:09:21.202Z,53.80
2022-09-27T18:11:49.121Z,53.80
2022-09-27T18:14:19.753Z,53.90
2022-09-27T18:16:47.697Z,53.90
2022-09-27T18:19:18.586Z,53.90
2022-09-27T18:21:49.788Z,54.00
2022-09-27T18:24:18.480Z,54.20
2022-09-27T18:26:46.599Z,53.70
2022-09-27T18:29:16.247Z,53.50
2022-09-27T18:31:48.417Z,53.70
2022-09-27T18:34:19.624Z,52.90
2022-09-27T18:36:48.879Z,52.20
2022-09-27T18:39:19.204Z,51.40
2022-09-27T18:41:49.171Z,50.90
2022-09-27T18:44:18.745Z,50.80
2022-09-27T18:46:47.063Z,50.80
2022-09-27T18:49:19.367Z,50.60
2022-09-27T18:51:51.937Z,50.70
2022-09-27T18:54:23.578Z,50.10
2022-09-27T18:56:52.644Z,50.20
2022-09-27T18:59:21.343Z,49.90
2022-09-27T19:01:49.532Z,49.90
2022-09-27T19:04:23.903Z,50.30
2022-09-27T19:06:54.321Z,50.10
2022-09-27T19:09:22.489Z,49.80
2022-09-27T19:11:50.454Z,50.00
2022-09-27T19:14:20.435Z,49.50
2022-09-27T19:16:48.958Z,49.70
2022-09-27T19:19:17.983Z,49.60
2022-09-27T19:21:46.674Z,49.80
2022-09-27T19:24:16.332Z,49.70
2022-09-27T19:26:44.353Z,49.20
2022-09-27T19:29:12.895Z,49.70
2022-09-27T19:31:44.970Z,49.60
2022-09-27T19:34:13.272Z,49.40
2022-09-27T19:36:41.470Z,48.70
2022-09-27T19:39:09.560Z,48.80
2022-09-27T19:41:40.203Z,48.30
2022-09-27T19:44:08.172Z,48.80
2022-09-27T19:46:36.170Z,48.70
2022-09-27T19:49:04.161Z,48.60
2022-09-27T19:51:33.340Z,48.60
2022-09-27T19:54:01.636Z,48.60
2022-09-27T19:56:29.615Z,48.60
2022-09-27T19:58:59.346Z,48.20
2022-09-27T20:01:28.910Z,48.20
2022-09-27T20:03:58.911Z,48.10
2022-09-27T20:06:27.038Z,47.80
2022-09-27T20:08:55.661Z,47.80
2022-09-27T20:11:29.379Z,47.60
2022-09-27T20:13:59.188Z,47.70
2022-09-27T20:16:28.307Z,47.60
2022-09-27T20:18:57.938Z,47.50
2022-09-27T20:21:28.705Z,47.40
2022-09-27T20:23:58.275Z,47.50
2022-09-27T20:26:27.828Z,47.60
2022-09-27T20:28:58.976Z,47.70
2022-09-27T20:31:28.842Z,47.60
2022-09-27T20:33:57.421Z,47.80
2022-09-27T20:36:29.668Z,47.90
2022-09-27T20:39:02.729Z,47.80
2022-09-27T20:41:33.314Z,47.90
2022-09-27T20:44:04.786Z,47.80
2022-09-27T20:46:33.682Z,47.90
2022-09-27T20:49:03.380Z,47.90
2022-09-27T20:51:33.222Z,47.80
2022-09-27T20:54:01.838Z,48.10
2022-09-27T20:56:31.971Z,48.10
2022-09-27T20:59:05.002Z,48.10
2022-09-27T21:01:33.653Z,48.10
2022-09-27T21:04:06.496Z,48.10
2022-09-27T21:06:34.450Z,48.30
2022-09-27T21:09:05.972Z,48.20
2022-09-27T21:11:34.080Z,48.10
2022-09-27T21:14:03.625Z,48.40
2022-09-27T21:16:36.119Z,48.10
2022-09-27T21:19:04.080Z,48.10
2022-09-27T21:21:32.120Z,48.10
2022-09-27T21:24:03.139Z,48.30
2022-09-27T21:26:32.878Z,47.90
2022-09-27T21:29:07.238Z,47.90
2022-09-27T21:31:35.850Z,48.00
2022-09-27T21:34:05.372Z,48.00
2022-09-27T21:36:38.152Z,47.90
2022-09-27T21:39:10.782Z,48.00
2022-09-27T21:41:39.635Z,48.10
2022-09-27T21:44:09.507Z,48.00
2022-09-27T21:46:41.194Z,47.90
2022-09-27T21:49:09.617Z,47.90
2022-09-27T21:51:40.564Z,48.10
2022-09-27T21:54:10.395Z,48.00
2022-09-27T21:56:40.383Z,47.70
2022-09-27T21:59:12.166Z,47.70
2022-09-27T22:01:40.153Z,47.70
2022-09-27T22:04:08.260Z,47.90
2022-09-27T22:06:38.212Z,47.70
2022-09-27T22:09:08.460Z,47.70
2022-09-27T22:11:39.442Z,47.80
2022-09-27T22:14:09.395Z,47.70
2022-09-27T22:16:37.693Z,47.80
2022-09-27T22:19:05.888Z,47.90
2022-09-27T22:21:36.164Z,47.70
2022-09-27T22:24:07.921Z,47.90
2022-09-27T22:26:37.656Z,47.70
2022-09-27T22:29:05.925Z,47.80
2022-09-27T22:31:35.717Z,48.00
2022-09-27T22:34:05.681Z,47.60
2022-09-27T22:36:34.819Z,47.60
2022-09-27T22:39:02.804Z,47.70
2022-09-27T22:41:30.798Z,47.70
2022-09-27T22:43:59.025Z,47.70
2022-09-27T22:46:27.023Z,47.80
2022-09-27T22:48:56.404Z,47.70
2022-09-27T22:51:26.673Z,47.80
2022-09-27T22:53:54.753Z,48.20
2022-09-27T22:56:22.716Z,47.40
2022-09-27T22:58:51.032Z,47.40
2022-09-27T23:01:20.576Z,47.60
2022-09-27T23:03:49.749Z,47.70
2022-09-27T23:06:23.932Z,47.60
2022-09-27T23:08:53.508Z,47.70
2022-09-27T23:11:23.494Z,47.60
2022-09-27T23:13:52.325Z,47.80
2022-09-27T23:16:24.297Z,48.50
2022-09-27T23:18:56.473Z,48.50
2022-09-27T23:21:28.679Z,49.30
2022-09-27T23:23:59.484Z,50.30
2022-09-27T23:26:28.953Z,50.80
2022-09-27T23:28:58.505Z,50.70
2022-09-27T23:31:29.704Z,51.20
2022-09-27T23:33:59.410Z,51.10
2022-09-27T23:36:31.487Z,51.50
2022-09-27T23:39:00.602Z,51.00
2022-09-27T23:41:28.585Z,51.50
2022-09-27T23:43:56.720Z,51.60
2022-09-27T23:46:25.025Z,51.40
2022-09-27T23:48:53.386Z,51.50
2022-09-27T23:51:21.321Z,52.20
2022-09-27T23:53:50.588Z,51.60
2022-09-27T23:56:18.853Z,51.00
2022-09-27T23:58:47.404Z,50.70
